createdAt,value
2019-05-06T00:00:34.727Z,29.00
2019-05-06T00:03:09.171Z,37.55
2019-05-06T00:05:43.662Z,34.35
2019-05-06T00:08:17.926Z,33.00
2019-05-06T00:10:54.092Z,33.60
2019-05-06T00:13:27.858Z,45.63
2019-05-06T00:16:03.888Z,50.03
2019-05-06T00:18:37.999Z,41.73
2019-05-06T00:21:14.624Z,39.98
2019-05-06T00:23:49.614Z,39.53
2019-05-06T00:26:34.424Z,44.18
2019-05-06T00:29:11.257Z,44.77
2019-05-06T00:31:45.709Z,48.52
2019-05-06T00:34:21.235Z,47.90
2019-05-06T00:36:57.308Z,46.10
2019-05-06T00:39:56.940Z,48.52
2019-05-06T00:42:56.878Z,48.45
2019-05-06T00:46:00.108Z,36.28
2019-05-06T00:49:36.996Z,30.90
2019-05-06T00:55:39.657Z,31.73
2019-05-06T01:02:10.749Z,41.13
2019-05-06T01:04:54.486Z,30.68
2019-05-06T01:10:39.482Z,22.45
2019-05-06T01:13:24.179Z,25.27
2019-05-06T01:15:59.427Z,18.23
2019-05-06T01:18:34.017Z,18.12
2019-05-06T01:21:14.774Z,18.07
2019-05-06T01:23:49.333Z,16.90
2019-05-06T01:26:24.286Z,18.12
2019-05-06T01:28:59.043Z,17.57
2019-05-06T01:31:42.288Z,19.70
2019-05-06T01:34:09.151Z,21.75
2019-05-06T01:36:43.875Z,22.52
2019-05-06T01:39:19.595Z,21.37
2019-05-06T01:42:01.380Z,31.02
2019-05-06T01:44:36.050Z,36.28
2019-05-06T01:47:11.979Z,33.80
2019-05-06T01:49:46.450Z,31.52
2019-05-06T01:52:20.798Z,23.83
2019-05-06T01:54:55.622Z,19.98
2019-05-06T01:57:30.223Z,18.77
2019-05-06T02:00:06.858Z,20.25
2019-05-06T02:02:54.563Z,17.17
2019-05-06T02:05:34.380Z,16.57
2019-05-06T02:08:08.858Z,21.70
2019-05-06T02:10:43.562Z,19.35
2019-05-06T02:13:18.119Z,26.00
2019-05-06T02:15:54.628Z,18.90
2019-05-06T02:18:28.351Z,15.80
2019-05-06T02:21:05.489Z,17.37
2019-05-06T02:23:46.625Z,15.40
2019-05-06T02:26:21.187Z,14.15
2019-05-06T02:28:58.929Z,12.43
2019-05-06T02:31:48.378Z,12.23
2019-05-06T02:34:25.407Z,12.18
2019-05-06T02:37:17.276Z,11.00
2019-05-06T02:39:53.326Z,10.75
2019-05-06T02:42:28.605Z,11.12
2019-05-06T02:45:04.015Z,9.68
2019-05-06T02:47:43.037Z,10.15
2019-05-06T02:50:26.937Z,9.30
2019-05-06T02:53:02.787Z,9.10
2019-05-06T02:55:37.138Z,9.25
2019-05-06T02:58:14.595Z,9.20
2019-05-06T03:00:47.587Z,8.65
2019-05-06T03:03:23.246Z,9.15
2019-05-06T03:06:06.802Z,8.43
2019-05-06T03:08:43.680Z,7.95
2019-05-06T03:11:18.511Z,7.72
2019-05-06T03:13:54.597Z,7.70
2019-05-06T03:16:29.203Z,7.30
2019-05-06T03:19:04.131Z,6.20
2019-05-06T03:21:58.379Z,5.72
2019-05-06T03:24:34.230Z,5.90
2019-05-06T03:27:08.637Z,5.53
2019-05-06T03:29:44.500Z,5.78
2019-05-06T03:32:24.760Z,5.83
2019-05-06T03:35:16.374Z,5.20
2019-05-06T03:37:33.288Z,5.33
2019-05-06T03:40:05.743Z,5.25
2019-05-06T03:42:42.462Z,5.70
2019-05-06T03:45:23.751Z,8.33
2019-05-06T03:48:12.993Z,6.25
2019-05-06T03:50:46.733Z,6.37
2019-05-06T03:53:23.166Z,6.35
2019-05-06T03:55:58.455Z,6.17
2019-05-06T03:58:35.772Z,6.50
2019-05-06T04:01:12.928Z,6.72
2019-05-06T04:03:51.351Z,5.50
2019-05-06T04:06:24.149Z,5.28
2019-05-06T04:08:57.582Z,6.35
2019-05-06T04:11:35.866Z,6.22
2019-05-06T04:14:20.511Z,5.53
2019-05-06T04:17:03.282Z,5.03
2019-05-06T04:19:39.370Z,5.30
2019-05-06T04:22:27.453Z,6.28
2019-05-06T04:25:13.792Z,5.53
2019-05-06T04:27:57.980Z,4.45
2019-05-06T04:30:33.416Z,4.12
2019-05-06T04:33:08.009Z,5.33
2019-05-06T04:35:43.030Z,5.20
2019-05-06T04:38:17.539Z,3.37
2019-05-06T04:40:54.049Z,4.55
2019-05-06T04:43:29.284Z,3.40
2019-05-06T04:46:05.937Z,3.02
2019-05-06T04:48:43.183Z,41.37
2019-05-06T04:51:36.760Z,40.03
2019-05-06T04:54:13.339Z,23.52
2019-05-06T04:56:49.471Z,158.78
2019-05-06T04:59:24.299Z,53.68
2019-05-06T05:01:59.084Z,28.02
2019-05-06T05:04:37.754Z,18.87
2019-05-06T05:07:13.073Z,61.00
2019-05-06T05:09:49.537Z,29.65
2019-05-06T05:12:28.230Z,18.80
2019-05-06T05:15:17.375Z,14.15
2019-05-06T05:18:09.598Z,11.10
2019-05-06T05:20:47.051Z,5.95
2019-05-06T05:23:22.903Z,23.47
2019-05-06T05:26:02.709Z,8.10
2019-05-06T05:28:36.463Z,6.87
2019-05-06T05:31:12.300Z,5.40
2019-05-06T05:33:49.535Z,5.55
2019-05-06T05:36:25.573Z,7.72
2019-05-06T05:39:00.327Z,9.25
2019-05-06T05:41:37.621Z,5.42
2019-05-06T05:44:16.429Z,6.80
2019-05-06T05:46:52.521Z,4.33
2019-05-06T05:49:45.366Z,3.60
2019-05-06T05:52:22.158Z,3.50
2019-05-06T05:54:57.486Z,6.75
2019-05-06T05:57:32.799Z,4.58
2019-05-06T06:00:12.788Z,4.08
2019-05-06T06:02:49.107Z,4.15
2019-05-06T06:05:23.731Z,5.37
2019-05-06T06:07:58.260Z,5.70
2019-05-06T06:10:34.099Z,3.87
2019-05-06T06:13:09.737Z,3.58
2019-05-06T06:15:48.841Z,2.80
2019-05-06T06:18:33.357Z,2.47
2019-05-06T06:21:28.122Z,2.65
2019-05-06T06:24:17.302Z,2.35
2019-05-06T06:26:56.570Z,2.55
2019-05-06T06:29:34.611Z,2.50
2019-05-06T06:32:13.742Z,2.80
2019-05-06T06:35:07.552Z,2.33
2019-05-06T06:37:33.221Z,2.40
2019-05-06T06:40:14.435Z,2.52
2019-05-06T06:42:52.313Z,2.17
2019-05-06T06:45:26.001Z,2.40
2019-05-06T06:48:03.142Z,2.17
2019-05-06T06:50:49.257Z,2.72
2019-05-06T06:57:08.683Z,4.67
2019-05-06T07:05:56.323Z,2.00
2019-05-06T07:08:36.561Z,2.20
2019-05-06T07:11:06.769Z,2.85
2019-05-06T07:13:43.192Z,2.67
2019-05-06T07:16:17.402Z,3.40
2019-05-06T07:18:53.129Z,3.80
2019-05-06T07:21:34.279Z,3.37
2019-05-06T07:24:13.099Z,2.55
2019-05-06T07:26:48.329Z,3.00
2019-05-06T07:29:26.657Z,2.58
2019-05-06T07:31:59.979Z,2.80
2019-05-06T07:34:34.714Z,2.33
2019-05-06T07:37:09.485Z,2.30
2019-05-06T07:39:44.172Z,2.20
2019-05-06T07:42:22.283Z,1.92
2019-05-06T07:44:59.552Z,2.12
2019-05-06T07:47:35.625Z,2.22
2019-05-06T07:50:12.856Z,1.98
2019-05-06T07:52:47.637Z,2.12
2019-05-06T07:55:23.506Z,2.98
2019-05-06T07:57:58.816Z,3.20
2019-05-06T08:00:34.471Z,3.42
2019-05-06T08:03:14.052Z,2.60
2019-05-06T08:05:57.874Z,4.53
2019-05-06T08:08:23.114Z,13.32
2019-05-06T08:11:02.484Z,7.72
2019-05-06T08:13:34.562Z,2.65
2019-05-06T08:16:10.163Z,2.90
2019-05-06T08:18:44.936Z,2.40
2019-05-06T08:21:22.333Z,2.12
2019-05-06T08:23:57.151Z,2.20
2019-05-06T08:26:33.110Z,1.77
2019-05-06T08:29:07.693Z,1.80
2019-05-06T08:31:43.336Z,1.90
2019-05-06T08:34:18.025Z,1.80
2019-05-06T08:36:54.645Z,1.80
2019-05-06T08:39:29.078Z,1.90
2019-05-06T08:42:03.431Z,1.80
2019-05-06T08:44:38.250Z,1.95
2019-05-06T08:47:13.384Z,1.70
2019-05-06T08:50:02.743Z,2.50
2019-05-06T08:52:38.606Z,1.80
2019-05-06T08:55:13.265Z,1.60
2019-05-06T08:57:48.016Z,1.70
2019-05-06T09:00:23.811Z,2.30
2019-05-06T09:02:58.486Z,1.72
2019-05-06T09:05:33.083Z,1.87
2019-05-06T09:08:07.624Z,1.98
2019-05-06T09:10:43.265Z,2.20
2019-05-06T09:13:18.780Z,2.10
2019-05-06T09:15:53.227Z,1.80
2019-05-06T09:18:28.235Z,1.98
2019-05-06T09:21:06.134Z,1.90
2019-05-06T09:23:42.358Z,1.90
2019-05-06T09:26:22.334Z,2.08
2019-05-06T09:28:57.575Z,1.98
2019-05-06T09:31:46.527Z,1.80
2019-05-06T09:34:23.350Z,2.35
2019-05-06T09:36:59.262Z,2.17
2019-05-06T09:39:33.623Z,1.90
2019-05-06T09:42:08.759Z,2.00
2019-05-06T09:44:43.211Z,2.22
2019-05-06T09:47:33.027Z,1.98
2019-05-06T09:50:08.674Z,2.10
2019-05-06T09:52:43.898Z,2.40
2019-05-06T09:55:25.785Z,2.15
2019-05-06T09:58:03.415Z,2.30
2019-05-06T10:00:42.725Z,2.50
2019-05-06T10:03:15.920Z,2.08
2019-05-06T10:05:50.266Z,2.10
2019-05-06T10:08:24.648Z,2.30
2019-05-06T10:10:59.901Z,2.40
2019-05-06T10:13:34.587Z,2.35
2019-05-06T10:16:08.983Z,2.42
2019-05-06T10:18:44.786Z,2.35
2019-05-06T10:21:19.500Z,2.40
2019-05-06T10:23:53.915Z,2.50
2019-05-06T10:26:29.299Z,2.40
2019-05-06T10:29:08.560Z,2.33
2019-05-06T10:31:52.411Z,2.80
2019-05-06T10:34:43.301Z,2.70
2019-05-06T10:40:56.125Z,2.85
2019-05-06T10:43:49.144Z,2.55
2019-05-06T10:46:31.225Z,2.70
2019-05-06T10:49:07.903Z,2.25
2019-05-06T10:51:46.869Z,2.50
2019-05-06T10:54:22.898Z,2.60
2019-05-06T10:57:05.951Z,2.58
2019-05-06T10:59:40.397Z,2.55
2019-05-06T11:02:25.251Z,2.42
2019-05-06T11:05:02.521Z,2.72
2019-05-06T11:07:35.613Z,3.00
2019-05-06T11:10:23.394Z,2.70
2019-05-06T11:12:46.960Z,2.67
2019-05-06T11:15:23.334Z,2.20
2019-05-06T11:17:58.032Z,2.85
2019-05-06T11:20:33.525Z,2.98
2019-05-06T11:23:08.335Z,3.30
2019-05-06T11:25:43.491Z,3.40
2019-05-06T11:28:38.491Z,3.50
2019-05-06T11:31:17.453Z,2.50
2019-05-06T11:34:00.411Z,2.75
2019-05-06T11:36:55.628Z,2.60
2019-05-06T11:39:32.138Z,2.95
2019-05-06T11:42:23.709Z,5.72
2019-05-06T11:44:43.965Z,4.33
2019-05-06T11:47:18.668Z,4.42
2019-05-06T11:49:56.372Z,5.40
2019-05-06T11:52:31.173Z,10.95
2019-05-06T11:55:05.911Z,10.00
2019-05-06T11:57:44.702Z,7.12
2019-05-06T12:00:23.900Z,6.65
2019-05-06T12:02:59.420Z,5.67
2019-05-06T12:05:35.185Z,6.12
2019-05-06T12:08:13.673Z,5.97
2019-05-06T12:10:48.122Z,5.67
2019-05-06T12:13:22.998Z,5.45
2019-05-06T12:15:57.826Z,4.70
2019-05-06T12:18:34.688Z,3.33
2019-05-06T12:21:13.352Z,2.87
2019-05-06T12:23:47.137Z,2.47
2019-05-06T12:26:21.530Z,2.60
2019-05-06T12:28:56.038Z,2.85
2019-05-06T12:31:32.592Z,2.40
2019-05-06T12:34:06.298Z,2.50
2019-05-06T12:36:42.731Z,3.17
2019-05-06T12:39:25.461Z,3.25
2019-05-06T12:42:10.244Z,3.17
2019-05-06T12:44:48.897Z,2.70
2019-05-06T12:47:32.632Z,3.00
2019-05-06T12:50:07.408Z,2.92
2019-05-06T12:52:44.107Z,2.65
2019-05-06T12:55:24.282Z,2.65
2019-05-06T12:57:57.597Z,3.00
2019-05-06T13:00:34.556Z,2.92
2019-05-06T13:03:08.856Z,2.72
2019-05-06T13:05:45.394Z,2.80
2019-05-06T13:08:53.980Z,3.15
2019-05-06T13:11:16.463Z,3.00
2019-05-06T13:13:57.488Z,2.83
2019-05-06T13:16:27.286Z,2.83
2019-05-06T13:19:03.524Z,3.35
2019-05-06T13:21:38.054Z,2.80
2019-05-06T13:24:13.776Z,3.00
2019-05-06T13:26:49.050Z,2.95
2019-05-06T13:29:25.407Z,2.83
2019-05-06T13:32:01.984Z,2.87
2019-05-06T13:34:42.325Z,3.62
2019-05-06T13:37:23.499Z,2.60
2019-05-06T13:40:03.286Z,3.12
2019-05-06T13:42:42.512Z,3.35
2019-05-06T13:45:18.474Z,2.72
2019-05-06T13:47:55.072Z,3.12
2019-05-06T13:50:33.518Z,3.10
2019-05-06T13:53:14.668Z,3.35
2019-05-06T13:55:49.289Z,3.35
2019-05-06T13:58:26.814Z,2.92
2019-05-06T14:01:03.440Z,2.77
2019-05-06T14:03:39.059Z,3.10
2019-05-06T14:06:13.545Z,3.12
2019-05-06T14:08:50.431Z,3.15
2019-05-06T14:11:25.305Z,2.87
2019-05-06T14:13:59.855Z,7.65
2019-05-06T14:16:36.560Z,5.47
2019-05-06T14:19:13.170Z,4.08
2019-05-06T14:21:49.032Z,3.67
2019-05-06T14:24:24.305Z,4.72
2019-05-06T14:27:02.706Z,3.90
2019-05-06T14:29:45.699Z,3.37
2019-05-06T14:34:57.343Z,3.05
2019-05-06T14:40:33.033Z,3.00
2019-05-06T14:43:07.875Z,3.15
2019-05-06T14:45:48.991Z,3.10
2019-05-06T14:48:28.513Z,2.83
2019-05-06T14:51:18.140Z,3.02
2019-05-06T14:53:57.084Z,2.85
2019-05-06T14:56:47.681Z,3.05
2019-05-06T14:59:27.106Z,3.00
2019-05-06T15:02:06.710Z,3.17
2019-05-06T15:04:43.200Z,2.83
2019-05-06T15:07:17.292Z,2.80
2019-05-06T15:10:02.451Z,3.17
2019-05-06T15:12:29.490Z,2.80
2019-05-06T15:15:04.042Z,3.10
2019-05-06T15:17:38.865Z,3.00
2019-05-06T15:20:18.718Z,2.87
2019-05-06T15:22:58.691Z,2.60
2019-05-06T15:25:34.855Z,2.52
2019-05-06T15:28:10.183Z,2.70
2019-05-06T15:30:45.893Z,2.55
2019-05-06T15:33:27.687Z,2.45
2019-05-06T15:36:12.696Z,2.30
2019-05-06T15:38:48.177Z,2.72
2019-05-06T15:41:24.038Z,2.35
2019-05-06T15:44:03.533Z,2.60
2019-05-06T15:46:39.249Z,2.70
2019-05-06T15:49:16.170Z,2.42
2019-05-06T15:51:52.327Z,2.62
2019-05-06T15:54:27.958Z,2.90
2019-05-06T15:57:03.555Z,2.75
2019-05-06T15:59:41.241Z,2.60
2019-05-06T16:02:16.458Z,2.60
2019-05-06T16:04:55.210Z,2.40
2019-05-06T16:07:34.674Z,2.30
2019-05-06T16:10:22.583Z,2.45
2019-05-06T16:13:02.467Z,2.98
2019-05-06T16:15:37.044Z,2.87
2019-05-06T16:18:12.967Z,3.02
2019-05-06T16:20:49.940Z,2.72
2019-05-06T16:23:25.478Z,2.55
2019-05-06T16:25:59.939Z,2.67
2019-05-06T16:28:35.705Z,2.55
2019-05-06T16:31:18.301Z,2.80
2019-05-06T16:33:54.398Z,2.70
2019-05-06T16:36:32.189Z,2.70
2019-05-06T16:39:09.329Z,2.90
2019-05-06T16:41:46.521Z,2.77
2019-05-06T16:44:21.710Z,2.80
2019-05-06T16:46:58.357Z,2.90
2019-05-06T16:49:34.118Z,2.75
2019-05-06T16:52:09.759Z,2.75
2019-05-06T16:54:48.818Z,2.42
2019-05-06T16:57:24.449Z,2.80
2019-05-06T16:59:58.892Z,2.60
2019-05-06T17:02:37.655Z,2.77
2019-05-06T17:05:22.474Z,2.90
2019-05-06T17:07:59.369Z,2.95
2019-05-06T17:10:36.559Z,2.90
2019-05-06T17:13:12.701Z,2.83
2019-05-06T17:15:52.701Z,3.22
2019-05-06T17:18:26.797Z,2.87
2019-05-06T17:21:01.229Z,3.00
2019-05-06T17:23:36.909Z,3.20
2019-05-06T17:26:12.789Z,3.10
2019-05-06T17:29:02.567Z,3.47
2019-05-06T17:31:44.562Z,3.35
2019-05-06T17:34:29.200Z,3.30
2019-05-06T17:37:05.172Z,3.40
2019-05-06T17:39:39.968Z,3.20
2019-05-06T17:42:14.362Z,3.10
2019-05-06T17:44:48.856Z,3.15
2019-05-06T17:47:24.489Z,3.55
2019-05-06T17:49:59.037Z,3.50
2019-05-06T17:52:33.628Z,3.02
2019-05-06T17:55:11.983Z,3.42
2019-05-06T17:57:50.370Z,3.58
2019-05-06T18:00:24.869Z,3.12
2019-05-06T18:03:02.575Z,3.27
2019-05-06T18:05:37.583Z,3.22
2019-05-06T18:08:12.778Z,3.35
2019-05-06T18:10:47.323Z,3.33
2019-05-06T18:13:22.484Z,3.40
2019-05-06T18:15:56.896Z,3.92
2019-05-06T18:18:32.472Z,3.37
2019-05-06T18:21:06.852Z,3.62
2019-05-06T18:23:41.526Z,3.17
2019-05-06T18:26:16.011Z,3.20
2019-05-06T18:28:52.673Z,3.60
2019-05-06T18:31:27.304Z,3.85
2019-05-06T18:34:03.014Z,3.60
2019-05-06T18:36:37.672Z,3.70
2019-05-06T18:39:12.705Z,3.17
2019-05-06T18:41:47.256Z,4.10
2019-05-06T18:44:22.737Z,3.35
2019-05-06T18:46:57.568Z,3.90
2019-05-06T18:49:33.585Z,3.65
2019-05-06T18:52:07.947Z,4.20
2019-05-06T18:54:42.923Z,3.67
2019-05-06T18:57:17.562Z,3.90
2019-05-06T18:59:53.306Z,4.05
2019-05-06T19:02:27.573Z,4.00
2019-05-06T19:05:19.767Z,4.00
2019-05-06T19:07:56.180Z,3.83
2019-05-06T19:10:33.204Z,4.12
2019-05-06T19:13:08.761Z,3.55
2019-05-06T19:15:43.323Z,4.28
2019-05-06T19:18:17.838Z,4.00
2019-05-06T19:20:53.207Z,3.85
2019-05-06T19:23:28.172Z,4.20
2019-05-06T19:26:02.980Z,4.35
2019-05-06T19:28:37.672Z,3.65
2019-05-06T19:31:12.968Z,3.62
2019-05-06T19:33:47.893Z,4.35
2019-05-06T19:36:23.483Z,4.53
2019-05-06T19:38:58.284Z,3.90
2019-05-06T19:41:33.192Z,4.10
2019-05-06T19:44:08.000Z,4.30
2019-05-06T19:46:42.689Z,4.28
2019-05-06T19:49:17.177Z,4.10
2019-05-06T19:51:53.048Z,3.77
2019-05-06T19:54:27.717Z,4.22
2019-05-06T19:57:02.604Z,4.10
2019-05-06T19:59:37.293Z,4.20
2019-05-06T20:02:12.880Z,4.30
2019-05-06T20:04:48.821Z,4.72
2019-05-06T20:07:42.766Z,4.15
2019-05-06T20:10:18.852Z,4.30
2019-05-06T20:13:04.930Z,4.78
2019-05-06T20:15:43.634Z,4.08
2019-05-06T20:18:18.055Z,4.35
2019-05-06T20:20:53.305Z,4.30
2019-05-06T20:23:28.345Z,4.37
2019-05-06T20:26:02.934Z,3.95
2019-05-06T20:28:37.383Z,4.03
2019-05-06T20:31:12.117Z,4.17
2019-05-06T20:33:46.418Z,4.47
2019-05-06T20:36:22.586Z,4.62
2019-05-06T20:38:56.679Z,4.70
2019-05-06T20:41:33.567Z,4.80
2019-05-06T20:44:07.967Z,4.53
2019-05-06T20:46:44.542Z,4.33
2019-05-06T20:49:23.386Z,4.35
2019-05-06T20:52:00.399Z,4.05
2019-05-06T20:54:35.245Z,4.25
2019-05-06T20:57:12.094Z,4.53
2019-05-06T20:59:45.375Z,4.60
2019-05-06T21:02:25.216Z,4.70
2019-05-06T21:04:57.869Z,4.20
2019-05-06T21:07:32.457Z,4.42
2019-05-06T21:10:08.000Z,4.70
2019-05-06T21:12:42.901Z,4.80
2019-05-06T21:15:18.142Z,4.90
2019-05-06T21:17:52.554Z,4.65
2019-05-06T21:20:26.932Z,4.78
2019-05-06T21:23:02.315Z,4.92
2019-05-06T21:25:37.361Z,5.40
2019-05-06T21:28:12.168Z,5.10
2019-05-06T21:30:46.929Z,4.78
2019-05-06T21:33:22.117Z,5.00
2019-05-06T21:35:56.700Z,4.92
2019-05-06T21:38:32.663Z,5.10
2019-05-06T21:41:07.076Z,4.40
2019-05-06T21:43:47.063Z,4.53
2019-05-06T21:46:17.320Z,5.20
2019-05-06T21:48:52.967Z,5.00
2019-05-06T21:51:28.718Z,4.85
2019-05-06T21:54:03.146Z,5.17
2019-05-06T21:56:37.518Z,5.37
2019-05-06T21:59:12.880Z,5.47
2019-05-06T22:01:47.482Z,4.90
2019-05-06T22:04:23.171Z,5.42
2019-05-06T22:06:57.904Z,5.60
2019-05-06T22:09:32.487Z,5.37
2019-05-06T22:12:07.906Z,4.58
2019-05-06T22:14:43.476Z,5.45
2019-05-06T22:17:18.012Z,10.78
2019-05-06T22:19:52.519Z,31.87
2019-05-06T22:22:37.150Z,35.83
2019-05-06T22:25:12.690Z,36.70
2019-05-06T22:27:47.216Z,31.85
2019-05-06T22:30:23.834Z,27.07
2019-05-06T22:32:57.768Z,20.00
2019-05-06T22:35:32.542Z,15.95
2019-05-06T22:38:12.346Z,18.42
2019-05-06T22:40:47.310Z,17.73
2019-05-06T22:43:21.994Z,14.78
2019-05-06T22:45:56.510Z,12.13
2019-05-06T22:48:32.399Z,9.68
2019-05-06T22:51:06.925Z,9.83
2019-05-06T22:53:42.544Z,10.78
2019-05-06T22:56:18.052Z,14.78
2019-05-06T22:58:52.668Z,14.07
2019-05-06T23:01:35.360Z,11.12
2019-05-06T23:04:10.204Z,10.98
2019-05-06T23:06:44.569Z,9.30
2019-05-06T23:09:18.970Z,10.93
2019-05-06T23:11:53.406Z,11.90
2019-05-06T23:14:34.288Z,11.68
2019-05-06T23:17:05.160Z,13.03
2019-05-06T23:19:42.621Z,12.75
2019-05-06T23:22:16.199Z,19.55
2019-05-06T23:24:52.261Z,32.90
2019-05-06T23:27:26.342Z,17.73
2019-05-06T23:30:03.056Z,16.85
2019-05-06T23:32:36.901Z,17.90
2019-05-06T23:35:12.840Z,16.48
2019-05-06T23:38:23.030Z,13.80
2019-05-06T23:41:32.837Z,15.90
2019-05-06T23:44:46.075Z,18.65
2019-05-06T23:47:53.734Z,26.05
2019-05-06T23:51:05.270Z,99.37
2019-05-06T23:54:16.015Z,48.23
2019-05-06T23:56:48.745Z,46.88
2019-05-06T23:59:23.553Z,48.27
